createdAt,value
2017-12-21T00:02:21.025Z,1.62
2017-12-21T00:04:47.385Z,1.51
2017-12-21T00:07:13.762Z,1.38
2017-12-21T00:09:40.150Z,1.57
2017-12-21T00:12:06.625Z,1.64
2017-12-21T00:14:33.040Z,1.68
2017-12-21T00:16:59.462Z,1.76
2017-12-21T00:19:25.881Z,1.83
2017-12-21T00:21:52.262Z,1.84
2017-12-21T00:24:18.621Z,1.97
2017-12-21T00:26:45.011Z,2.03
2017-12-21T00:29:11.397Z,2.03
2017-12-21T00:31:37.742Z,1.97
2017-12-21T00:34:04.076Z,1.99
2017-12-21T00:36:30.449Z,2.07
2017-12-21T00:38:56.790Z,2.14
2017-12-21T00:41:23.146Z,2.28
2017-12-21T00:43:49.525Z,2.24
2017-12-21T00:46:15.889Z,2.11
2017-12-21T00:48:42.224Z,2.35
2017-12-21T00:51:08.597Z,2.33
2017-12-21T00:53:34.928Z,2.22
2017-12-21T00:56:01.256Z,2.12
2017-12-21T00:58:27.669Z,1.90
2017-12-21T01:00:54.018Z,1.92
2017-12-21T01:03:20.483Z,1.84
2017-12-21T01:05:46.850Z,1.76
2017-12-21T01:08:13.176Z,1.72
2017-12-21T01:10:39.508Z,1.61
2017-12-21T01:13:05.914Z,1.49
2017-12-21T01:15:32.275Z,1.48
2017-12-21T01:17:58.653Z,1.60
2017-12-21T01:20:25.032Z,1.69
2017-12-21T01:22:51.369Z,1.72
2017-12-21T01:25:17.713Z,1.66
2017-12-21T01:27:44.095Z,1.61
2017-12-21T01:30:10.437Z,1.61
2017-12-21T01:32:36.794Z,1.65
2017-12-21T01:35:03.161Z,1.70
2017-12-21T01:37:29.620Z,1.69
2017-12-21T01:39:56.127Z,1.65
2017-12-21T01:42:22.598Z,1.70
2017-12-21T01:44:49.030Z,1.76
2017-12-21T01:47:15.393Z,1.78
2017-12-21T01:49:41.845Z,1.79
2017-12-21T01:52:08.256Z,1.77
2017-12-21T01:54:34.593Z,1.79
2017-12-21T01:57:01.013Z,1.74
2017-12-21T01:59:27.394Z,1.76
2017-12-21T02:01:53.757Z,1.71
2017-12-21T02:04:20.245Z,1.84
2017-12-21T02:06:46.645Z,1.91
2017-12-21T02:09:13.022Z,1.96
2017-12-21T02:11:39.479Z,2.01
2017-12-21T02:14:05.861Z,2.04
2017-12-21T02:16:32.220Z,2.07
2017-12-21T02:18:58.594Z,2.22
2017-12-21T02:21:25.009Z,2.57
2017-12-21T02:23:51.429Z,2.59
2017-12-21T02:26:17.889Z,2.48
2017-12-21T02:28:44.489Z,2.12
2017-12-21T02:31:10.916Z,2.04
2017-12-21T02:33:37.390Z,2.13
2017-12-21T02:36:03.810Z,2.17
2017-12-21T02:38:30.225Z,2.27
2017-12-21T02:40:56.681Z,2.38
2017-12-21T02:43:23.213Z,2.30
2017-12-21T02:45:49.640Z,2.25
2017-12-21T02:48:16.261Z,2.07
2017-12-21T02:50:42.692Z,2.01
2017-12-21T02:53:09.124Z,2.10
2017-12-21T02:55:35.569Z,2.13
2017-12-21T02:58:01.970Z,2.13
2017-12-21T03:00:28.402Z,2.09
2017-12-21T03:02:54.861Z,2.10
2017-12-21T03:05:21.270Z,2.08
2017-12-21T03:07:47.750Z,2.03
2017-12-21T03:10:14.241Z,2.04
2017-12-21T03:12:40.657Z,2.13
2017-12-21T03:15:07.072Z,2.21
2017-12-21T03:17:33.465Z,2.26
2017-12-21T03:20:00.021Z,2.27
2017-12-21T03:22:26.405Z,2.35
2017-12-21T03:24:52.837Z,2.43
2017-12-21T03:27:19.229Z,2.29
2017-12-21T03:29:45.629Z,2.20
2017-12-21T03:32:12.058Z,1.86
2017-12-21T03:34:38.401Z,2.07
2017-12-21T03:37:04.738Z,2.15
2017-12-21T03:39:31.156Z,1.85
2017-12-21T03:41:57.542Z,2.00
2017-12-21T03:44:23.881Z,2.21
2017-12-21T03:46:50.257Z,2.18
2017-12-21T03:49:16.614Z,1.99
2017-12-21T03:51:43.037Z,1.87
2017-12-21T03:54:09.573Z,1.75
2017-12-21T03:56:35.941Z,1.94
2017-12-21T03:59:02.393Z,1.97
2017-12-21T04:01:28.769Z,1.98
2017-12-21T04:03:55.146Z,1.49
2017-12-21T04:06:21.509Z,1.74
2017-12-21T04:08:47.902Z,1.94
2017-12-21T04:11:14.284Z,1.69
2017-12-21T04:13:40.628Z,1.70
2017-12-21T04:16:06.998Z,1.74
2017-12-21T04:18:33.381Z,1.78
2017-12-21T04:20:59.726Z,1.74
2017-12-21T04:23:26.090Z,1.65
2017-12-21T04:25:52.421Z,1.72
2017-12-21T04:28:18.874Z,1.43
2017-12-21T04:30:45.313Z,1.44
2017-12-21T04:33:11.709Z,1.40
2017-12-21T04:35:38.044Z,1.61
2017-12-21T04:38:04.479Z,1.64
2017-12-21T04:40:30.864Z,1.77
2017-12-21T04:42:57.236Z,1.77
2017-12-21T04:45:23.653Z,1.45
2017-12-21T04:47:50.013Z,1.72
2017-12-21T04:50:16.361Z,1.79
2017-12-21T04:52:42.818Z,1.63
2017-12-21T04:55:09.308Z,1.56
2017-12-21T04:57:35.733Z,1.75
2017-12-21T05:00:02.175Z,2.10
2017-12-21T05:02:28.585Z,2.03
2017-12-21T05:04:54.948Z,1.45
2017-12-21T05:07:21.353Z,1.44
2017-12-21T05:09:47.746Z,1.42
2017-12-21T05:12:14.161Z,1.65
2017-12-21T05:14:40.557Z,1.49
2017-12-21T05:17:06.904Z,1.75
2017-12-21T05:19:33.257Z,1.84
2017-12-21T05:21:59.673Z,1.25
2017-12-21T05:24:32.964Z,1.40
2017-12-21T05:26:59.345Z,1.57
2017-12-21T05:29:25.769Z,1.65
2017-12-21T05:31:52.108Z,1.42
2017-12-21T05:34:18.433Z,1.64
2017-12-21T05:36:44.824Z,1.73
2017-12-21T05:39:11.161Z,1.47
2017-12-21T05:41:37.501Z,1.52
2017-12-21T05:44:03.886Z,1.41
2017-12-21T05:46:30.224Z,1.22
2017-12-21T05:48:56.787Z,1.32
2017-12-21T05:51:23.182Z,1.46
2017-12-21T05:53:49.548Z,1.52
2017-12-21T05:56:15.921Z,1.62
2017-12-21T05:58:42.322Z,1.26
2017-12-21T06:01:08.741Z,1.35
2017-12-21T06:03:35.185Z,1.24
2017-12-21T06:06:01.574Z,1.50
2017-12-21T06:08:27.939Z,1.43
2017-12-21T06:10:54.281Z,1.39
2017-12-21T06:13:20.700Z,1.74
2017-12-21T06:15:47.053Z,1.98
2017-12-21T06:18:13.409Z,2.02
2017-12-21T06:20:39.764Z,1.93
2017-12-21T06:23:06.089Z,1.68
2017-12-21T06:25:32.420Z,1.87
2017-12-21T06:27:58.792Z,2.05
2017-12-21T06:30:25.144Z,2.11
2017-12-21T06:32:51.486Z,2.03
2017-12-21T06:35:17.872Z,2.07
2017-12-21T06:37:44.214Z,2.30
2017-12-21T06:40:10.789Z,2.35
2017-12-21T06:42:37.183Z,2.33
2017-12-21T06:45:03.561Z,2.36
2017-12-21T06:47:29.898Z,1.75
2017-12-21T06:49:56.319Z,1.87
2017-12-21T06:52:22.857Z,2.06
2017-12-21T06:54:49.626Z,2.06
2017-12-21T06:57:16.034Z,2.16
2017-12-21T06:59:42.361Z,2.26
2017-12-21T07:02:08.724Z,2.39
2017-12-21T07:04:35.091Z,2.23
2017-12-21T07:07:01.441Z,1.63
2017-12-21T07:09:27.793Z,1.69
2017-12-21T07:11:54.201Z,1.49
2017-12-21T07:14:20.512Z,1.58
2017-12-21T07:16:46.869Z,1.42
2017-12-21T07:19:13.261Z,1.65
2017-12-21T07:21:39.610Z,1.43
2017-12-21T07:24:05.953Z,1.73
2017-12-21T07:26:32.321Z,1.57
2017-12-21T07:28:58.849Z,1.47
2017-12-21T07:31:25.176Z,1.71
2017-12-21T07:33:51.541Z,2.00
2017-12-21T07:36:18.040Z,2.06
2017-12-21T07:38:44.479Z,2.03
2017-12-21T07:41:10.870Z,2.33
2017-12-21T07:43:37.218Z,2.38
2017-12-21T07:46:03.545Z,2.53
2017-12-21T07:48:29.930Z,2.67
2017-12-21T07:50:56.257Z,2.65
2017-12-21T07:53:22.666Z,2.48
2017-12-21T07:55:49.063Z,2.30
2017-12-21T07:58:15.396Z,2.41
2017-12-21T08:00:41.762Z,2.58
2017-12-21T08:03:08.137Z,2.71
2017-12-21T08:05:34.474Z,2.70
2017-12-21T08:08:00.897Z,2.78
2017-12-21T08:10:27.307Z,2.21
2017-12-21T08:12:53.633Z,2.43
2017-12-21T08:15:19.977Z,2.52
2017-12-21T08:17:46.425Z,2.69
2017-12-21T08:20:12.821Z,2.92
2017-12-21T08:22:39.352Z,2.72
2017-12-21T08:25:05.724Z,2.35
2017-12-21T08:27:32.086Z,2.12
2017-12-21T08:29:58.450Z,2.22
2017-12-21T08:32:24.804Z,1.95
2017-12-21T08:34:51.134Z,1.80
2017-12-21T08:37:17.464Z,1.70
2017-12-21T08:39:43.834Z,1.71
2017-12-21T08:42:10.157Z,1.71
2017-12-21T08:44:36.500Z,1.91
2017-12-21T08:47:02.969Z,1.85
2017-12-21T08:49:29.358Z,1.87
2017-12-21T08:51:55.707Z,2.45
2017-12-21T08:54:22.104Z,2.72
2017-12-21T08:56:48.442Z,2.60
2017-12-21T08:59:14.774Z,2.50
2017-12-21T09:01:41.142Z,2.63
2017-12-21T09:04:07.489Z,2.33
2017-12-21T09:06:33.844Z,2.66
2017-12-21T09:09:00.216Z,2.69
2017-12-21T09:11:26.665Z,2.65
2017-12-21T09:13:53.022Z,3.16
2017-12-21T09:16:19.489Z,3.37
2017-12-21T09:18:45.911Z,3.44
2017-12-21T09:21:12.277Z,3.35
2017-12-21T09:23:38.809Z,2.95
2017-12-21T09:26:05.176Z,2.96
2017-12-21T09:28:31.645Z,2.77
2017-12-21T09:30:58.094Z,2.64
2017-12-21T09:33:24.482Z,2.47
2017-12-21T09:35:50.969Z,2.63
2017-12-21T09:38:17.394Z,3.02
2017-12-21T09:40:44.029Z,3.41
2017-12-21T09:43:10.609Z,3.32
2017-12-21T09:45:37.021Z,3.35
2017-12-21T09:48:03.392Z,3.48
2017-12-21T09:50:29.720Z,3.19
2017-12-21T09:52:56.094Z,3.17
2017-12-21T09:55:22.429Z,3.28
2017-12-21T09:57:48.801Z,2.41
2017-12-21T10:00:15.197Z,2.31
2017-12-21T10:02:41.630Z,2.37
2017-12-21T10:05:07.990Z,2.75
2017-12-21T10:07:34.728Z,3.10
2017-12-21T10:10:01.086Z,3.25
2017-12-21T10:12:27.474Z,3.46
2017-12-21T10:14:53.858Z,3.41
2017-12-21T10:17:20.206Z,3.23
2017-12-21T10:19:46.533Z,2.82
2017-12-21T10:22:12.925Z,2.86
2017-12-21T10:24:39.381Z,2.85
2017-12-21T10:27:05.762Z,2.90
2017-12-21T10:29:32.448Z,2.96
2017-12-21T10:31:58.841Z,2.80
2017-12-21T10:34:25.474Z,2.83
2017-12-21T10:36:51.854Z,2.60
2017-12-21T10:39:18.239Z,2.80
2017-12-21T10:41:44.615Z,3.04
2017-12-21T10:44:11.014Z,2.99
2017-12-21T10:46:37.413Z,3.11
2017-12-21T10:49:03.754Z,2.78
2017-12-21T10:51:30.366Z,3.09
2017-12-21T10:53:57.003Z,3.10
2017-12-21T10:56:23.487Z,2.90
2017-12-21T10:58:49.894Z,2.85
2017-12-21T11:01:16.386Z,2.91
2017-12-21T11:03:42.777Z,3.11
2017-12-21T11:06:09.177Z,2.96
2017-12-21T11:08:35.577Z,2.94
2017-12-21T11:11:01.977Z,2.93
2017-12-21T11:13:28.426Z,3.02
2017-12-21T11:15:54.845Z,3.14
2017-12-21T11:18:21.238Z,3.02
2017-12-21T11:20:47.650Z,3.20
2017-12-21T11:23:14.053Z,3.53
2017-12-21T11:25:40.435Z,3.71
2017-12-21T11:28:06.902Z,3.56
2017-12-21T11:30:33.326Z,3.47
2017-12-21T11:32:59.746Z,3.42
2017-12-21T11:35:26.108Z,3.49
2017-12-21T11:37:52.504Z,3.53
2017-12-21T11:40:18.903Z,3.28
2017-12-21T11:42:45.380Z,3.35
2017-12-21T11:45:11.800Z,2.89
2017-12-21T11:47:38.161Z,3.08
2017-12-21T11:50:04.541Z,3.26
2017-12-21T11:52:31.154Z,3.32
2017-12-21T11:54:57.541Z,3.62
2017-12-21T11:57:23.998Z,3.63
2017-12-21T11:59:50.377Z,3.64
2017-12-21T12:02:16.725Z,3.91
2017-12-21T12:04:43.135Z,3.78
2017-12-21T12:07:09.576Z,3.78
2017-12-21T12:09:35.961Z,3.76
2017-12-21T12:12:02.377Z,3.94
2017-12-21T12:14:28.753Z,3.96
2017-12-21T12:16:55.098Z,3.73
2017-12-21T12:19:21.493Z,3.51
2017-12-21T12:21:47.842Z,3.52
2017-12-21T12:24:14.181Z,3.45
2017-12-21T12:26:40.593Z,3.34
2017-12-21T12:29:06.971Z,3.32
2017-12-21T12:31:33.341Z,3.33
2017-12-21T12:33:59.702Z,3.32
2017-12-21T12:36:26.108Z,3.33
2017-12-21T12:38:52.650Z,3.45
2017-12-21T12:41:19.027Z,3.40
2017-12-21T12:43:45.458Z,3.55
2017-12-21T12:46:11.873Z,3.66
2017-12-21T12:48:38.320Z,3.72
2017-12-21T12:51:04.654Z,3.78
2017-12-21T12:53:30.985Z,3.58
2017-12-21T12:55:57.497Z,3.10
2017-12-21T12:58:23.829Z,3.43
2017-12-21T13:00:50.185Z,3.59
2017-12-21T13:03:16.568Z,3.70
2017-12-21T13:05:42.928Z,3.56
2017-12-21T13:08:09.279Z,3.50
2017-12-21T13:10:35.665Z,3.37
2017-12-21T13:13:02.050Z,3.59
2017-12-21T13:15:28.422Z,3.75
2017-12-21T13:17:54.806Z,3.36
2017-12-21T13:20:21.160Z,3.43
2017-12-21T13:22:47.521Z,3.60
2017-12-21T13:25:13.904Z,3.59
2017-12-21T13:27:40.290Z,3.26
2017-12-21T13:30:06.645Z,3.16
2017-12-21T13:32:33.682Z,3.53
2017-12-21T13:35:00.033Z,3.24
2017-12-21T13:37:26.377Z,3.23
2017-12-21T13:39:52.970Z,3.59
2017-12-21T13:42:19.492Z,3.80
2017-12-21T13:44:45.953Z,3.72
2017-12-21T13:47:12.469Z,3.76
2017-12-21T13:49:38.925Z,3.64
2017-12-21T13:52:05.508Z,3.74
2017-12-21T13:54:31.924Z,3.86
2017-12-21T13:56:58.254Z,3.86
2017-12-21T13:59:24.741Z,3.56
2017-12-21T14:01:51.194Z,3.75
2017-12-21T14:04:17.693Z,3.78
2017-12-21T14:06:44.046Z,3.58
2017-12-21T14:09:10.465Z,3.29
2017-12-21T14:11:36.805Z,3.38
2017-12-21T14:14:03.305Z,3.67
2017-12-21T14:16:29.685Z,3.79
2017-12-21T14:18:56.009Z,3.64
2017-12-21T14:21:22.452Z,3.47
2017-12-21T14:23:48.845Z,3.59
2017-12-21T14:26:15.193Z,3.63
2017-12-21T14:28:41.537Z,3.12
2017-12-21T14:31:07.970Z,3.25
2017-12-21T14:33:34.466Z,3.50
2017-12-21T14:36:00.830Z,3.75
2017-12-21T14:38:27.202Z,3.86
2017-12-21T14:40:53.534Z,3.66
2017-12-21T14:43:19.876Z,3.26
2017-12-21T14:45:46.248Z,2.98
2017-12-21T14:48:12.605Z,3.26
2017-12-21T14:50:38.957Z,3.20
2017-12-21T14:53:05.370Z,3.22
2017-12-21T14:55:31.801Z,3.36
2017-12-21T14:57:58.126Z,2.81
2017-12-21T15:00:24.486Z,3.29
2017-12-21T15:02:50.861Z,3.22
2017-12-21T15:05:17.201Z,3.34
2017-12-21T15:07:43.581Z,3.06
2017-12-21T15:10:09.918Z,2.65
2017-12-21T15:12:36.368Z,2.98
2017-12-21T15:15:02.777Z,3.30
2017-12-21T15:17:29.142Z,3.48
2017-12-21T15:19:55.477Z,3.25
2017-12-21T15:22:21.849Z,3.04
2017-12-21T15:24:48.257Z,2.95
2017-12-21T15:27:14.624Z,3.11
2017-12-21T15:29:40.992Z,3.27
2017-12-21T15:32:07.628Z,3.18
2017-12-21T15:34:34.079Z,3.39
2017-12-21T15:37:00.433Z,3.21
2017-12-21T15:39:26.770Z,3.39
2017-12-21T15:41:53.109Z,3.55
2017-12-21T15:44:19.513Z,3.49
2017-12-21T15:46:45.853Z,3.58
2017-12-21T15:49:12.237Z,3.48
2017-12-21T15:51:38.636Z,2.93
2017-12-21T15:54:04.970Z,3.10
2017-12-21T15:56:31.357Z,3.31
2017-12-21T15:58:57.761Z,3.40
2017-12-21T16:01:24.118Z,3.51
2017-12-21T16:03:50.465Z,3.42
2017-12-21T16:06:16.846Z,3.19
2017-12-21T16:08:43.310Z,3.35
2017-12-21T16:11:09.721Z,3.46
2017-12-21T16:13:36.149Z,3.50
2017-12-21T16:16:02.529Z,3.46
2017-12-21T16:18:28.893Z,3.45
2017-12-21T16:20:55.301Z,3.44
2017-12-21T16:23:21.633Z,3.42
2017-12-21T16:25:48.897Z,3.40
2017-12-21T16:28:15.311Z,3.37
2017-12-21T16:30:41.701Z,3.37
2017-12-21T16:33:08.130Z,3.32
2017-12-21T16:35:34.589Z,3.27
2017-12-21T16:38:00.954Z,3.23
2017-12-21T16:40:27.368Z,3.12
2017-12-21T16:42:53.845Z,3.00
2017-12-21T16:45:20.218Z,2.88
2017-12-21T16:47:46.593Z,2.82
2017-12-21T16:50:13.058Z,2.81
2017-12-21T16:52:39.428Z,2.88
2017-12-21T16:55:05.781Z,2.76
2017-12-21T16:57:32.213Z,2.70
2017-12-21T16:59:58.597Z,2.70
2017-12-21T17:02:24.950Z,2.65
2017-12-21T17:04:51.418Z,2.61
2017-12-21T17:07:17.834Z,2.55
2017-12-21T17:09:44.218Z,2.53
2017-12-21T17:12:10.629Z,2.48
2017-12-21T17:14:36.993Z,2.47
2017-12-21T17:17:03.413Z,2.54
2017-12-21T17:19:29.810Z,2.58
2017-12-21T17:21:56.193Z,2.64
2017-12-21T17:24:22.595Z,2.72
2017-12-21T17:26:48.986Z,2.75
2017-12-21T17:29:15.395Z,2.70
2017-12-21T17:31:41.765Z,2.63
2017-12-21T17:34:08.193Z,2.63
2017-12-21T17:36:34.643Z,2.68
2017-12-21T17:39:00.986Z,2.65
2017-12-21T17:41:27.409Z,2.70
2017-12-21T17:43:53.782Z,2.70
2017-12-21T17:46:20.153Z,2.64
2017-12-21T17:48:46.554Z,2.56
2017-12-21T17:51:12.961Z,2.53
2017-12-21T17:53:39.309Z,2.46
2017-12-21T17:56:05.770Z,2.50
2017-12-21T17:58:32.141Z,2.48
2017-12-21T18:00:58.533Z,2.48
2017-12-21T18:03:24.930Z,2.38
2017-12-21T18:05:51.314Z,2.37
2017-12-21T18:08:17.698Z,2.28
2017-12-21T18:10:44.110Z,2.14
2017-12-21T18:13:10.481Z,2.04
2017-12-21T18:15:37.054Z,1.94
2017-12-21T18:18:03.597Z,1.94
2017-12-21T18:20:29.962Z,1.89
2017-12-21T18:22:56.342Z,1.93
2017-12-21T18:25:22.770Z,1.98
2017-12-21T18:27:49.115Z,1.90
2017-12-21T18:30:15.528Z,1.75
2017-12-21T18:32:41.948Z,1.58
2017-12-21T18:35:08.302Z,1.57
2017-12-21T18:37:34.645Z,1.65
2017-12-21T18:40:01.083Z,1.89
2017-12-21T18:42:27.478Z,2.11
2017-12-21T18:44:53.854Z,2.01
2017-12-21T18:47:20.318Z,1.87
2017-12-21T18:49:46.682Z,1.87
2017-12-21T18:52:13.059Z,1.92
2017-12-21T18:54:39.450Z,1.92
2017-12-21T18:57:06.405Z,1.85
2017-12-21T18:59:33.779Z,1.72
2017-12-21T19:02:00.205Z,1.64
2017-12-21T19:04:26.625Z,1.61
2017-12-21T19:06:53.140Z,1.62
2017-12-21T19:09:19.554Z,1.68
2017-12-21T19:11:45.942Z,1.73
2017-12-21T19:14:12.378Z,1.78
2017-12-21T19:16:38.808Z,1.73
2017-12-21T19:19:05.178Z,1.71
2017-12-21T19:21:31.541Z,1.76
2017-12-21T19:23:57.945Z,1.77
2017-12-21T19:26:24.334Z,1.74
2017-12-21T19:28:50.914Z,1.64
2017-12-21T19:31:17.306Z,1.56
2017-12-21T19:33:43.695Z,1.58
2017-12-21T19:36:10.065Z,1.68
2017-12-21T19:38:36.482Z,1.64
2017-12-21T19:41:02.881Z,1.63
2017-12-21T19:43:29.250Z,1.62
2017-12-21T19:45:55.710Z,1.56
2017-12-21T19:48:22.123Z,1.49
2017-12-21T19:50:48.497Z,1.48
2017-12-21T19:53:14.890Z,1.51
2017-12-21T19:55:41.269Z,1.48
2017-12-21T19:58:07.638Z,1.33
2017-12-21T20:00:34.073Z,1.32
2017-12-21T20:03:00.437Z,1.26
2017-12-21T20:05:26.800Z,1.16
2017-12-21T20:07:53.189Z,1.06
2017-12-21T20:10:19.544Z,1.05
2017-12-21T20:12:45.941Z,1.07
2017-12-21T20:15:12.353Z,1.10
2017-12-21T20:17:39.557Z,1.07
2017-12-21T20:20:05.905Z,0.91
2017-12-21T20:22:32.851Z,0.78
2017-12-21T20:25:00.102Z,0.60
2017-12-21T20:27:26.462Z,0.61
2017-12-21T20:29:52.849Z,0.70
2017-12-21T20:32:19.223Z,0.75
2017-12-21T20:34:45.677Z,0.77
2017-12-21T20:37:12.140Z,0.67
2017-12-21T20:39:38.534Z,0.64
2017-12-21T20:42:04.910Z,0.60
2017-12-21T20:44:31.314Z,0.52
2017-12-21T20:46:57.719Z,0.53
2017-12-21T20:49:24.058Z,0.42
2017-12-21T20:51:50.461Z,0.32
2017-12-21T20:54:16.825Z,0.36
2017-12-21T20:56:43.202Z,0.48
2017-12-21T20:59:09.590Z,0.54
2017-12-21T21:01:35.962Z,0.52
2017-12-21T21:04:02.338Z,0.50
2017-12-21T21:06:28.725Z,0.43
2017-12-21T21:08:55.105Z,0.52
2017-12-21T21:11:21.474Z,0.60
2017-12-21T21:13:47.877Z,0.67
2017-12-21T21:16:14.303Z,0.67
2017-12-21T21:18:40.717Z,0.70
2017-12-21T21:21:07.125Z,0.64
2017-12-21T21:23:33.509Z,0.55
2017-12-21T21:26:00.585Z,0.54
2017-12-21T21:28:26.957Z,0.63
2017-12-21T21:30:53.292Z,0.67
2017-12-21T21:33:19.654Z,0.57
2017-12-21T21:35:46.076Z,0.49
2017-12-21T21:38:12.509Z,0.52
2017-12-21T21:40:38.872Z,0.56
2017-12-21T21:43:05.292Z,0.87
2017-12-21T21:45:31.657Z,0.95
2017-12-21T21:47:58.020Z,0.87
2017-12-21T21:50:24.610Z,0.69
2017-12-21T21:52:50.980Z,0.55
2017-12-21T21:55:17.349Z,0.36
2017-12-21T21:57:43.785Z,0.25
2017-12-21T22:00:10.185Z,0.08
2017-12-21T22:02:36.605Z,0.10
2017-12-21T22:05:03.044Z,0.03
2017-12-21T22:07:29.429Z,0.03
2017-12-21T22:09:55.816Z,-0.16
2017-12-21T22:12:22.217Z,-0.31
2017-12-21T22:14:48.569Z,-0.37
2017-12-21T22:17:14.908Z,-0.36
2017-12-21T22:19:41.301Z,-0.46
2017-12-21T22:22:07.682Z,-0.41
2017-12-21T22:24:34.070Z,-0.37
2017-12-21T22:27:00.460Z,-0.33
2017-12-21T22:29:26.809Z,-0.41
2017-12-21T22:31:53.203Z,-0.37
2017-12-21T22:34:19.617Z,-0.35
2017-12-21T22:36:45.985Z,-0.42
2017-12-21T22:39:12.360Z,-0.45
2017-12-21T22:41:38.768Z,-0.40
2017-12-21T22:44:05.116Z,-0.20
2017-12-21T22:46:31.494Z,-0.11
2017-12-21T22:48:57.949Z,-0.08
2017-12-21T22:51:24.309Z,-0.03
2017-12-21T22:53:50.689Z,-0.02
2017-12-21T22:56:17.064Z,-0.19
2017-12-21T22:58:43.430Z,-0.17
2017-12-21T23:01:09.792Z,-0.20
2017-12-21T23:03:36.277Z,-0.25
2017-12-21T23:06:02.682Z,-0.32
2017-12-21T23:08:29.040Z,-0.37
2017-12-21T23:10:55.469Z,-0.34
2017-12-21T23:13:21.821Z,-0.27
2017-12-21T23:15:48.189Z,-0.32
2017-12-21T23:18:14.610Z,-0.32
2017-12-21T23:20:40.945Z,-0.25
2017-12-21T23:23:07.338Z,-0.26
2017-12-21T23:25:33.717Z,-0.42
2017-12-21T23:28:00.093Z,-0.61
2017-12-21T23:30:26.476Z,-0.54
2017-12-21T23:32:59.767Z,-0.44
2017-12-21T23:35:26.145Z,-0.36
2017-12-21T23:37:52.525Z,-0.40
2017-12-21T23:40:18.911Z,-0.46
2017-12-21T23:42:45.265Z,-0.47
2017-12-21T23:45:11.649Z,-0.45
2017-12-21T23:47:38.049Z,-0.47
2017-12-21T23:50:04.432Z,-0.45
2017-12-21T23:52:30.821Z,-0.44
2017-12-21T23:54:57.245Z,-0.49
2017-12-21T23:57:23.613Z,-0.71
2017-12-21T23:59:49.961Z,-0.61
